createdAt,value
2022-11-13T00:02:52.892Z,57.08
2022-11-13T00:08:13.247Z,60.28
2022-11-13T00:13:34.557Z,49.13
2022-11-13T00:18:54.785Z,50.20
2022-11-13T00:24:14.743Z,54.63
2022-11-13T00:29:34.840Z,53.35
2022-11-13T00:34:54.943Z,46.65
2022-11-13T00:40:15.372Z,40.25
2022-11-13T00:45:35.568Z,39.10
2022-11-13T00:50:56.668Z,36.60
2022-11-13T00:56:16.827Z,36.83
2022-11-13T01:01:37.174Z,35.05
2022-11-13T01:12:17.607Z,27.60
2022-11-13T01:17:38.090Z,28.30
2022-11-13T01:22:58.103Z,31.25
2022-11-13T01:28:18.104Z,31.95
2022-11-13T01:33:38.894Z,31.30
2022-11-13T01:38:59.041Z,30.48
2022-11-13T01:44:20.136Z,30.75
2022-11-13T01:49:44.678Z,32.28
2022-11-13T01:55:11.710Z,36.05
2022-11-13T02:00:31.648Z,34.60
2022-11-13T02:05:54.843Z,35.45
2022-11-13T02:11:15.123Z,34.60
2022-11-13T02:16:37.830Z,34.22
2022-11-13T02:22:23.576Z,32.83
2022-11-13T02:27:49.277Z,29.30
2022-11-13T02:33:33.504Z,28.30
2022-11-13T02:38:55.569Z,26.75
2022-11-13T02:44:15.588Z,28.17
2022-11-13T02:49:35.699Z,26.23
2022-11-13T02:54:55.879Z,23.00
2022-11-13T03:00:16.366Z,25.48
2022-11-13T03:05:36.423Z,29.73
2022-11-13T03:10:56.570Z,26.15
2022-11-13T03:16:19.295Z,32.35
2022-11-13T03:21:39.110Z,42.47
2022-11-13T03:26:59.064Z,47.60
2022-11-13T03:37:39.246Z,63.30
2022-11-13T03:42:59.392Z,39.60
2022-11-13T03:48:19.344Z,45.88
2022-11-13T03:53:39.411Z,48.58
2022-11-13T03:58:59.599Z,41.75
2022-11-13T04:04:19.744Z,34.58
2022-11-13T04:09:40.056Z,37.28
2022-11-13T04:15:00.242Z,35.03
2022-11-13T04:20:20.691Z,32.42
2022-11-13T04:25:40.783Z,32.97
2022-11-13T04:31:01.054Z,30.00
2022-11-13T04:36:21.233Z,30.23
2022-11-13T04:42:00.099Z,29.92
2022-11-13T04:47:20.499Z,28.93
2022-11-13T04:52:41.049Z,30.33
2022-11-13T04:58:00.935Z,30.70
2022-11-13T05:03:20.877Z,27.25
2022-11-13T05:08:41.044Z,23.95
2022-11-13T05:14:03.625Z,24.55
2022-11-13T05:19:23.801Z,32.35
2022-11-13T05:24:44.015Z,26.83
2022-11-13T05:30:04.780Z,30.58
2022-11-13T05:35:25.047Z,31.02
2022-11-13T05:40:45.308Z,28.83
2022-11-13T05:51:32.449Z,22.52
2022-11-13T05:56:52.497Z,25.10
2022-11-13T06:02:12.750Z,26.70
2022-11-13T06:07:32.851Z,21.75
2022-11-13T06:12:55.178Z,26.60
2022-11-13T06:18:15.381Z,21.00
2022-11-13T06:23:37.555Z,22.48
2022-11-13T06:28:58.844Z,29.30
2022-11-13T06:34:19.012Z,34.03
2022-11-13T06:39:39.296Z,29.58
2022-11-13T06:50:18.935Z,28.20
2022-11-13T06:55:46.955Z,30.98
2022-11-13T07:01:11.297Z,25.55
2022-11-13T07:06:33.876Z,29.33
2022-11-13T07:11:56.729Z,27.45
2022-11-13T07:17:16.855Z,30.33
2022-11-13T07:22:36.943Z,26.98
2022-11-13T07:27:57.231Z,28.40
2022-11-13T07:33:17.462Z,23.85
2022-11-13T07:38:37.929Z,25.48
2022-11-13T07:43:57.912Z,24.55
2022-11-13T07:49:17.824Z,21.40
2022-11-13T07:54:38.093Z,23.48
2022-11-13T07:59:58.140Z,17.95
2022-11-13T08:05:18.870Z,20.92
2022-11-13T08:10:39.119Z,21.05
2022-11-13T08:16:00.504Z,19.42
2022-11-13T08:21:21.288Z,21.30
2022-11-13T08:26:41.871Z,19.50
2022-11-13T08:32:02.020Z,17.75
2022-11-13T08:37:21.936Z,19.13
2022-11-13T08:42:41.890Z,17.73
2022-11-13T08:48:03.530Z,19.88
2022-11-13T08:53:24.723Z,18.42
2022-11-13T08:58:44.832Z,19.55
2022-11-13T09:04:04.911Z,17.98
2022-11-13T09:09:25.539Z,18.10
2022-11-13T09:14:45.571Z,17.83
2022-11-13T09:20:09.972Z,17.42
2022-11-13T09:25:37.822Z,20.08
2022-11-13T09:30:58.315Z,15.55
2022-11-13T09:36:18.567Z,16.02
2022-11-13T09:41:48.166Z,15.20
2022-11-13T09:47:23.986Z,16.70
2022-11-13T09:52:45.832Z,16.02
2022-11-13T09:58:39.630Z,14.95
2022-11-13T10:04:04.693Z,15.73
2022-11-13T10:09:55.391Z,14.02
2022-11-13T10:15:17.589Z,15.27
2022-11-13T10:20:43.256Z,13.68
2022-11-13T10:26:24.832Z,16.35
2022-11-13T10:31:47.960Z,15.88
2022-11-13T10:37:22.105Z,14.55
2022-11-13T10:42:42.171Z,12.02
2022-11-13T10:48:04.760Z,13.77
2022-11-13T10:53:27.494Z,13.30
2022-11-13T10:59:11.178Z,12.90
2022-11-13T11:04:31.412Z,13.30
2022-11-13T11:09:52.008Z,11.85
2022-11-13T11:15:26.195Z,11.98
2022-11-13T11:20:54.344Z,12.68
2022-11-13T11:26:23.212Z,11.23
2022-11-13T11:32:01.337Z,13.20
2022-11-13T11:37:24.324Z,10.68
2022-11-13T11:43:12.006Z,10.10
2022-11-13T11:48:34.239Z,9.75
2022-11-13T11:54:01.118Z,10.43
2022-11-13T11:59:45.414Z,9.55
2022-11-13T12:05:44.072Z,8.50
2022-11-13T12:11:18.726Z,8.60
2022-11-13T12:16:45.554Z,8.80
2022-11-13T12:22:46.901Z,8.85
2022-11-13T12:28:29.194Z,8.25
2022-11-13T12:34:01.076Z,10.15
2022-11-13T12:39:53.720Z,9.45
2022-11-13T12:45:24.050Z,7.88
2022-11-13T12:56:06.396Z,8.02
2022-11-13T13:01:32.600Z,7.55
2022-11-13T13:07:23.514Z,7.43
2022-11-13T13:13:02.102Z,9.48
2022-11-13T13:18:37.324Z,10.43
2022-11-13T13:24:07.232Z,9.60
2022-11-13T13:29:29.443Z,10.27
2022-11-13T13:34:58.782Z,9.55
2022-11-13T13:40:49.240Z,10.73
2022-11-13T13:46:24.656Z,9.90
2022-11-13T13:51:48.129Z,9.90
2022-11-13T13:57:14.344Z,11.00
2022-11-13T14:02:34.423Z,12.25
2022-11-13T14:07:56.804Z,9.38
2022-11-13T14:13:28.042Z,9.65
2022-11-13T14:18:48.357Z,8.82
2022-11-13T14:24:16.869Z,10.90
2022-11-13T14:30:03.064Z,9.45
2022-11-13T14:35:25.664Z,10.90
2022-11-13T14:40:48.732Z,10.02
2022-11-13T14:46:28.247Z,10.48
2022-11-13T14:51:54.953Z,10.48
2022-11-13T14:57:15.895Z,12.73
2022-11-13T15:02:36.148Z,12.02
2022-11-13T15:07:57.537Z,10.38
2022-11-13T15:13:18.414Z,9.13
2022-11-13T15:18:38.821Z,12.13
2022-11-13T15:24:01.078Z,12.93
2022-11-13T15:29:21.309Z,11.57
2022-11-13T15:34:41.482Z,11.13
2022-11-13T15:40:01.890Z,11.60
2022-11-13T15:45:22.129Z,11.63
2022-11-13T15:50:42.268Z,11.70
2022-11-13T15:56:05.084Z,13.23
2022-11-13T16:01:25.556Z,9.90
2022-11-13T16:06:46.122Z,9.50
2022-11-13T16:12:06.279Z,11.10
2022-11-13T16:17:26.575Z,14.30
2022-11-13T16:22:47.020Z,14.82
2022-11-13T16:28:15.364Z,17.25
2022-11-13T16:33:35.475Z,19.38
2022-11-13T16:38:55.695Z,23.02
2022-11-13T16:44:15.818Z,19.38
2022-11-13T16:54:55.520Z,26.25
2022-11-13T17:00:17.829Z,25.55
2022-11-13T17:05:37.768Z,26.55
2022-11-13T17:10:59.543Z,29.20
2022-11-13T17:16:21.588Z,27.58
2022-11-13T17:21:44.754Z,34.70
2022-11-13T17:27:05.218Z,34.03
2022-11-13T17:32:25.251Z,39.25
2022-11-13T17:37:45.502Z,34.97
2022-11-13T17:43:07.891Z,38.53
2022-11-13T17:48:31.581Z,38.05
2022-11-13T17:53:51.780Z,35.90
2022-11-13T17:59:11.984Z,37.47
2022-11-13T18:04:32.293Z,32.88
2022-11-13T18:15:12.200Z,29.70
2022-11-13T18:20:33.332Z,33.58
2022-11-13T18:25:53.907Z,31.73
2022-11-13T18:31:17.790Z,32.50
2022-11-13T18:36:37.716Z,35.13
2022-11-13T18:42:00.320Z,32.95
2022-11-13T18:47:20.382Z,30.80
2022-11-13T18:52:40.554Z,33.95
2022-11-13T19:03:21.007Z,32.50
2022-11-13T19:08:41.902Z,27.40
2022-11-13T19:14:02.215Z,29.42
2022-11-13T19:19:23.894Z,31.23
2022-11-13T19:24:43.751Z,28.00
2022-11-13T19:30:04.524Z,28.83
2022-11-13T19:35:26.042Z,27.25
2022-11-13T19:40:47.832Z,26.52
2022-11-13T19:46:10.504Z,24.70
2022-11-13T19:51:30.830Z,26.02
2022-11-13T19:56:50.887Z,27.33
2022-11-13T20:02:10.870Z,23.63
2022-11-13T20:12:51.107Z,23.35
2022-11-13T20:23:31.012Z,21.15
2022-11-13T20:28:51.224Z,22.00
2022-11-13T20:34:11.513Z,24.73
2022-11-13T20:39:31.760Z,24.02
2022-11-13T20:50:11.524Z,26.45
2022-11-13T21:00:51.549Z,24.33
2022-11-13T21:06:15.559Z,24.55
2022-11-13T21:11:35.571Z,22.80
2022-11-13T21:16:55.729Z,30.42
2022-11-13T21:22:15.794Z,27.08
2022-11-13T21:27:36.012Z,24.05
2022-11-13T21:32:59.815Z,26.85
2022-11-13T21:38:19.740Z,25.92
2022-11-13T21:43:39.891Z,25.63
2022-11-13T21:49:04.009Z,26.23
2022-11-13T21:54:24.253Z,24.60
2022-11-13T21:59:44.599Z,22.08
2022-11-13T22:05:05.475Z,23.10
2022-11-13T22:10:25.334Z,23.13
2022-11-13T22:15:45.477Z,23.35
2022-11-13T22:21:08.556Z,20.23
2022-11-13T22:26:29.634Z,18.83
2022-11-13T22:31:49.411Z,17.27
2022-11-13T22:37:09.468Z,19.55
2022-11-13T22:42:29.506Z,17.25
2022-11-13T22:47:49.636Z,16.63
2022-11-13T22:58:30.826Z,16.80
2022-11-13T23:03:52.646Z,15.27
2022-11-13T23:09:12.692Z,18.63
2022-11-13T23:14:33.381Z,16.00
2022-11-13T23:19:53.648Z,16.77
2022-11-13T23:30:33.537Z,15.52
2022-11-13T23:35:54.279Z,15.00
2022-11-13T23:41:14.739Z,14.02
2022-11-13T23:46:34.837Z,14.85
2022-11-13T23:57:14.820Z,13.73
